createdAt,value
2022-10-05T22:04:12.811Z,62.10
2022-10-05T22:06:43.236Z,61.90
2022-10-05T22:09:12.603Z,61.80
2022-10-05T22:13:13.642Z,61.10
2022-10-05T22:15:40.927Z,61.00
2022-10-05T22:18:15.709Z,61.40
2022-10-05T22:20:42.814Z,61.30
2022-10-05T22:23:09.837Z,61.20
2022-10-05T22:25:36.733Z,61.00
2022-10-05T22:28:05.504Z,61.20
2022-10-05T22:30:33.274Z,61.00
2022-10-05T22:32:59.950Z,61.20
2022-10-05T22:38:44.912Z,61.20
2022-10-05T22:41:12.419Z,61.60
2022-10-05T22:43:39.466Z,61.30
2022-10-05T22:46:13.407Z,61.50
2022-10-05T22:48:40.528Z,61.20
2022-10-05T22:51:09.695Z,61.50
2022-10-05T22:53:36.536Z,61.30
2022-10-05T22:56:11.644Z,61.00
2022-10-05T22:58:39.046Z,60.80
2022-10-05T23:01:11.366Z,60.20
2022-10-05T23:03:38.118Z,60.10
2022-10-05T23:06:10.846Z,58.80
2022-10-05T23:08:38.780Z,58.60
2022-10-05T23:11:21.898Z,58.60
2022-10-05T23:13:48.632Z,58.30
2022-10-05T23:16:17.917Z,58.30
2022-10-05T23:21:31.607Z,58.10
2022-10-05T23:23:58.263Z,57.80
2022-10-05T23:26:25.727Z,58.00
2022-10-05T23:28:52.766Z,57.80
2022-10-05T23:31:22.191Z,57.90
2022-10-05T23:33:49.093Z,57.90
2022-10-05T23:36:18.887Z,58.00
2022-10-05T23:38:46.146Z,57.60
2022-10-05T23:41:13.476Z,58.00
2022-10-05T23:43:40.443Z,58.30
2022-10-05T23:46:08.133Z,58.50
2022-10-05T23:48:38.210Z,59.50
2022-10-05T23:51:10.417Z,59.70
2022-10-05T23:53:37.468Z,59.70
2022-10-05T23:56:04.687Z,59.50
2022-10-05T23:58:31.834Z,59.70
